createdAt,value
2023-07-23T00:01:35.446Z,17.20
2023-07-23T00:06:40.589Z,17.10
2023-07-23T00:11:44.702Z,17.30
2023-07-23T00:16:49.774Z,17.40
2023-07-23T00:21:54.347Z,17.30
2023-07-23T00:26:57.846Z,17.30
2023-07-23T00:32:03.608Z,17.30
2023-07-23T00:37:07.469Z,17.20
2023-07-23T00:42:11.171Z,17.20
2023-07-23T00:47:17.971Z,17.40
2023-07-23T00:52:22.235Z,17.50
2023-07-23T00:57:26.725Z,17.00
2023-07-23T01:02:32.026Z,16.90
2023-07-23T01:07:36.188Z,16.90
2023-07-23T01:12:40.464Z,16.90
2023-07-23T01:17:47.564Z,17.00
2023-07-23T01:22:52.817Z,16.90
2023-07-23T01:27:56.316Z,16.80
2023-07-23T01:33:02.524Z,16.70
2023-07-23T01:38:08.747Z,16.70
2023-07-23T01:43:13.420Z,16.70
2023-07-23T01:48:17.809Z,16.70
2023-07-23T01:53:23.441Z,16.70
2023-07-23T01:58:27.015Z,16.70
2023-07-23T02:03:31.167Z,16.30
2023-07-23T02:08:36.512Z,16.30
2023-07-23T02:13:40.079Z,16.00
2023-07-23T02:18:43.590Z,15.90
2023-07-23T02:23:48.963Z,15.80
2023-07-23T02:28:53.358Z,15.70
2023-07-23T02:33:57.514Z,15.70
2023-07-23T02:39:02.526Z,15.80
2023-07-23T02:44:06.189Z,15.60
2023-07-23T02:49:09.755Z,15.50
2023-07-23T02:54:14.925Z,15.40
2023-07-23T02:59:18.791Z,15.30
2023-07-23T03:04:27.793Z,15.40
2023-07-23T03:09:33.082Z,15.40
2023-07-23T03:14:37.239Z,15.30
2023-07-23T03:19:40.772Z,15.20
2023-07-23T03:24:47.654Z,15.20
2023-07-23T03:29:51.246Z,15.10
2023-07-23T03:34:54.740Z,15.20
2023-07-23T03:39:59.565Z,15.10
2023-07-23T03:45:03.263Z,15.00
2023-07-23T03:50:08.082Z,15.00
2023-07-23T03:55:13.140Z,15.00
2023-07-23T04:00:16.947Z,15.00
2023-07-23T04:05:21.534Z,15.10
2023-07-23T04:10:26.424Z,15.10
2023-07-23T04:15:31.956Z,15.10
2023-07-23T04:20:35.529Z,15.10
2023-07-23T04:25:40.624Z,15.20
2023-07-23T04:30:44.153Z,15.10
2023-07-23T04:35:48.556Z,15.30
2023-07-23T04:40:54.292Z,15.50
2023-07-23T04:45:57.932Z,15.50
2023-07-23T04:51:04.907Z,15.70
2023-07-23T04:56:09.784Z,15.90
2023-07-23T05:01:13.976Z,16.00
2023-07-23T05:06:17.494Z,16.20
2023-07-23T05:11:22.756Z,16.20
2023-07-23T05:16:26.898Z,16.20
2023-07-23T05:21:30.630Z,16.30
2023-07-23T05:26:35.665Z,16.40
2023-07-23T05:31:39.266Z,16.40
2023-07-23T05:36:43.082Z,16.30
2023-07-23T05:41:47.886Z,16.20
2023-07-23T05:46:51.388Z,16.30
2023-07-23T05:51:55.222Z,16.40
2023-07-23T05:57:00.503Z,16.60
2023-07-23T06:02:04.630Z,16.70
2023-07-23T06:07:08.157Z,17.00
2023-07-23T06:12:13.682Z,17.30
2023-07-23T06:17:17.702Z,17.60
2023-07-23T06:22:21.406Z,18.00
2023-07-23T06:27:26.339Z,18.30
2023-07-23T06:32:29.989Z,18.80
2023-07-23T06:37:33.756Z,19.10
2023-07-23T06:42:39.263Z,19.40
2023-07-23T06:47:42.892Z,19.80
2023-07-23T06:52:47.147Z,20.60
2023-07-23T06:57:52.422Z,22.40
2023-07-23T07:02:56.099Z,23.30
2023-07-23T07:07:59.582Z,22.90
2023-07-23T07:13:04.610Z,24.10
2023-07-23T07:18:08.111Z,24.40
2023-07-23T07:23:12.301Z,25.90
2023-07-23T07:28:17.479Z,26.00
2023-07-23T07:33:21.059Z,25.10
2023-07-23T07:38:27.030Z,24.50
2023-07-23T07:43:31.990Z,24.10
2023-07-23T07:48:36.540Z,23.80
2023-07-23T07:53:40.244Z,23.50
2023-07-23T07:58:46.976Z,23.80
2023-07-23T08:03:51.002Z,23.00
2023-07-23T08:08:58.858Z,22.30
2023-07-23T08:14:07.404Z,21.90
2023-07-23T08:19:11.426Z,21.80
2023-07-23T08:24:15.371Z,21.60
2023-07-23T08:29:25.715Z,21.90
2023-07-23T08:34:29.621Z,22.00
2023-07-23T08:39:33.773Z,21.90
2023-07-23T08:45:11.762Z,22.10
2023-07-23T08:50:15.604Z,22.30
2023-07-23T08:55:20.032Z,22.80
2023-07-23T09:00:28.817Z,23.30
2023-07-23T09:05:32.599Z,23.30
2023-07-23T09:10:36.727Z,23.90
2023-07-23T09:15:41.897Z,24.90
2023-07-23T09:20:49.165Z,25.40
2023-07-23T09:25:53.147Z,26.00
2023-07-23T09:30:59.912Z,26.90
2023-07-23T09:36:04.886Z,28.30
2023-07-23T09:41:08.585Z,28.60
2023-07-23T09:46:13.752Z,28.50
2023-07-23T09:51:17.510Z,28.20
2023-07-23T09:56:23.602Z,28.60
2023-07-23T10:01:33.309Z,28.80
2023-07-23T10:06:38.227Z,29.00
2023-07-23T10:11:41.598Z,29.70
2023-07-23T10:16:48.009Z,29.20
2023-07-23T10:21:51.698Z,29.50
2023-07-23T10:32:24.295Z,29.40
2023-07-23T10:37:27.854Z,28.70
2023-07-23T10:42:46.287Z,27.90
2023-07-23T10:47:53.860Z,27.90
2023-07-23T10:53:02.046Z,27.80
2023-07-23T10:58:12.754Z,28.30
2023-07-23T11:03:20.596Z,28.30
2023-07-23T11:08:28.510Z,28.70
2023-07-23T11:13:34.622Z,27.90
2023-07-23T11:18:42.286Z,28.70
2023-07-23T11:23:45.916Z,30.40
2023-07-23T11:28:49.870Z,29.70
2023-07-23T11:33:55.228Z,30.30
2023-07-23T11:38:59.922Z,31.50
2023-07-23T11:44:05.240Z,31.20
2023-07-23T11:49:12.229Z,31.30
2023-07-23T11:54:17.182Z,31.40
2023-07-23T11:59:21.647Z,30.80
2023-07-23T12:04:26.717Z,30.10
2023-07-23T12:09:31.350Z,31.00
2023-07-23T12:14:37.007Z,30.20
2023-07-23T12:19:44.763Z,30.10
2023-07-23T12:24:48.323Z,30.10
2023-07-23T12:29:51.953Z,29.50
2023-07-23T12:34:56.901Z,29.50
2023-07-23T12:40:00.618Z,29.30
2023-07-23T12:45:05.272Z,29.10
2023-07-23T12:50:11.180Z,29.50
2023-07-23T12:55:15.262Z,29.70
2023-07-23T13:00:19.965Z,29.40
2023-07-23T13:05:24.838Z,29.40
2023-07-23T13:10:28.995Z,29.20
2023-07-23T13:15:33.004Z,28.90
2023-07-23T13:20:38.003Z,28.20
2023-07-23T13:25:43.099Z,28.10
2023-07-23T13:30:46.832Z,28.30
2023-07-23T13:35:55.437Z,28.20
2023-07-23T13:40:59.033Z,28.40
2023-07-23T13:46:02.509Z,28.30
2023-07-23T13:51:07.488Z,28.20
2023-07-23T13:56:13.819Z,28.20
2023-07-23T14:01:17.775Z,28.20
2023-07-23T14:06:23.208Z,27.40
2023-07-23T14:11:27.868Z,26.70
2023-07-23T14:16:32.811Z,26.20
2023-07-23T14:21:37.933Z,26.00
2023-07-23T14:26:41.450Z,25.90
2023-07-23T14:31:45.461Z,25.80
2023-07-23T14:36:50.504Z,25.70
2023-07-23T14:41:54.387Z,25.50
2023-07-23T14:46:57.774Z,25.70
2023-07-23T14:52:02.707Z,26.30
2023-07-23T14:57:07.716Z,26.20
2023-07-23T15:02:11.373Z,25.80
2023-07-23T15:07:16.312Z,25.60
2023-07-23T15:12:20.760Z,25.50
2023-07-23T15:17:24.855Z,25.50
2023-07-23T15:22:30.902Z,25.00
2023-07-23T15:27:38.597Z,25.10
2023-07-23T15:32:43.104Z,25.00
2023-07-23T15:37:48.548Z,25.20
2023-07-23T15:42:52.185Z,25.30
2023-07-23T15:47:55.847Z,25.10
2023-07-23T15:53:01.189Z,25.30
2023-07-23T15:58:07.430Z,25.50
2023-07-23T16:03:11.146Z,25.50
2023-07-23T16:08:16.049Z,25.40
2023-07-23T16:13:20.102Z,25.00
2023-07-23T16:18:24.214Z,24.80
2023-07-23T16:23:29.196Z,24.80
2023-07-23T16:28:33.015Z,25.00
2023-07-23T16:33:37.230Z,25.00
2023-07-23T16:38:43.695Z,24.90
2023-07-23T16:43:50.406Z,24.50
2023-07-23T16:48:54.511Z,24.50
2023-07-23T16:53:59.762Z,24.30
2023-07-23T16:59:04.243Z,24.40
2023-07-23T17:04:08.843Z,24.70
2023-07-23T17:09:14.012Z,24.50
2023-07-23T17:14:17.718Z,24.30
2023-07-23T17:19:21.251Z,24.00
2023-07-23T17:24:26.113Z,23.80
2023-07-23T17:29:31.452Z,23.70
2023-07-23T17:34:34.926Z,23.50
2023-07-23T17:39:40.126Z,23.50
2023-07-23T17:44:44.146Z,23.30
2023-07-23T17:49:48.406Z,23.20
2023-07-23T17:54:53.378Z,23.30
2023-07-23T17:59:56.857Z,23.30
2023-07-23T18:05:00.457Z,23.30
2023-07-23T18:10:06.367Z,23.30
2023-07-23T18:15:11.246Z,23.10
2023-07-23T18:20:14.843Z,23.00
2023-07-23T18:25:20.058Z,22.90
2023-07-23T18:30:23.618Z,22.60
2023-07-23T18:35:27.208Z,22.50
2023-07-23T18:40:32.029Z,22.20
2023-07-23T18:45:35.588Z,22.10
2023-07-23T18:50:39.014Z,21.90
2023-07-23T18:55:44.802Z,21.60
2023-07-23T19:00:49.600Z,21.50
2023-07-23T19:05:53.728Z,21.40
2023-07-23T19:10:58.612Z,21.20
2023-07-23T19:16:07.349Z,21.20
2023-07-23T19:21:14.433Z,21.10
2023-07-23T19:26:19.433Z,21.00
2023-07-23T19:31:23.364Z,20.70
2023-07-23T19:36:28.336Z,20.60
2023-07-23T19:41:34.083Z,20.50
2023-07-23T19:46:38.597Z,20.40
2023-07-23T19:51:42.694Z,20.30
2023-07-23T19:56:47.822Z,20.30
2023-07-23T20:01:51.180Z,20.00
2023-07-23T20:06:54.674Z,19.80
2023-07-23T20:12:01.414Z,19.30
2023-07-23T20:17:06.572Z,19.00
2023-07-23T20:22:10.256Z,18.80
2023-07-23T20:27:15.381Z,18.70
2023-07-23T20:32:19.174Z,18.80
2023-07-23T20:37:24.921Z,18.70
2023-07-23T20:42:31.195Z,18.50
2023-07-23T20:47:34.810Z,18.20
2023-07-23T20:52:39.662Z,18.10
2023-07-23T20:57:44.481Z,18.10
2023-07-23T21:02:48.807Z,18.00
2023-07-23T21:07:52.477Z,17.90
2023-07-23T21:12:57.645Z,17.80
2023-07-23T21:18:01.079Z,17.60
2023-07-23T21:23:04.968Z,17.40
2023-07-23T21:28:09.745Z,17.20
2023-07-23T21:33:14.248Z,17.10
2023-07-23T21:38:17.798Z,16.90
2023-07-23T21:43:22.807Z,16.90
2023-07-23T21:48:26.589Z,16.70
2023-07-23T21:53:30.074Z,16.70
2023-07-23T21:58:35.316Z,16.60
2023-07-23T22:03:39.308Z,16.60
2023-07-23T22:08:43.175Z,16.50
2023-07-23T22:13:48.579Z,16.50
2023-07-23T22:18:52.030Z,16.70
2023-07-23T22:23:55.960Z,16.80
2023-07-23T22:29:00.903Z,17.00
2023-07-23T22:34:05.068Z,17.10
2023-07-23T22:39:08.985Z,17.20
2023-07-23T22:44:14.096Z,17.20
2023-07-23T22:49:18.256Z,17.10
2023-07-23T22:54:21.768Z,17.10
2023-07-23T22:59:42.810Z,17.20
2023-07-23T23:04:47.870Z,17.30
2023-07-23T23:09:51.590Z,17.40
2023-07-23T23:14:56.785Z,17.60
2023-07-23T23:20:00.457Z,17.70
2023-07-23T23:25:05.967Z,17.70
2023-07-23T23:30:12.075Z,17.70
2023-07-23T23:35:15.708Z,17.80
2023-07-23T23:40:20.152Z,17.90
2023-07-23T23:45:25.310Z,18.00
2023-07-23T23:50:29.409Z,18.00
2023-07-23T23:55:33.205Z,18.10
